createdAt,value
2022-08-03T00:00:24.154Z,101516.09
2022-08-03T00:02:50.767Z,101517.91
2022-08-03T00:05:17.323Z,101516.31
2022-08-03T00:07:43.901Z,101512.94
2022-08-03T00:10:12.534Z,101517.44
2022-08-03T00:12:39.079Z,101510.53
2022-08-03T00:15:10.417Z,101508.81
2022-08-03T00:17:52.597Z,101517.59
2022-08-03T00:20:21.575Z,101515.91
2022-08-03T00:22:48.433Z,101511.63
2022-08-03T00:25:14.925Z,101511.63
2022-08-03T00:27:41.472Z,101520.38
2022-08-03T00:30:08.686Z,101509.16
2022-08-03T00:32:35.199Z,101500.56
2022-08-03T00:35:07.920Z,101504.97
2022-08-03T00:37:40.677Z,101502.38
2022-08-03T00:40:10.504Z,101507.59
2022-08-03T00:42:59.958Z,101504.28
2022-08-03T00:45:32.717Z,101512.16
2022-08-03T00:48:00.338Z,101510.44
2022-08-03T00:50:30.615Z,101501.91
2022-08-03T00:52:59.463Z,101501.88
2022-08-03T00:55:26.446Z,101502.81
2022-08-03T00:57:54.102Z,101504.56
2022-08-03T01:00:24.445Z,101495.94
2022-08-03T01:02:51.625Z,101494.28
2022-08-03T01:05:19.279Z,101490.72
2022-08-03T01:07:52.713Z,101498.66
2022-08-03T01:10:46.067Z,101482.22
2022-08-03T01:14:01.661Z,101484.88
2022-08-03T01:16:35.725Z,101478.91
2022-08-03T01:19:30.137Z,101476.38
2022-08-03T01:22:13.352Z,101474.66
2022-08-03T01:24:45.842Z,101473.91
2022-08-03T01:27:21.936Z,101473.84
2022-08-03T01:30:02.286Z,101474.78
2022-08-03T01:33:00.340Z,101480.03
2022-08-03T01:35:43.574Z,101476.59
2022-08-03T01:38:18.157Z,101468.88
2022-08-03T01:40:47.213Z,101473.25
2022-08-03T01:43:58.905Z,101469.81
2022-08-03T01:46:07.507Z,101468.97
2022-08-03T01:48:36.287Z,101472.44
2022-08-03T01:51:03.001Z,101471.63
2022-08-03T01:53:33.671Z,101463.81
2022-08-03T01:56:02.722Z,101463.88
2022-08-03T01:58:29.912Z,101458.66
2022-08-03T02:01:01.461Z,101469.13
2022-08-03T02:03:30.338Z,101456.13
2022-08-03T02:06:59.813Z,101460.47
2022-08-03T02:08:47.650Z,101455.22
2022-08-03T02:11:14.713Z,101462.19
2022-08-03T02:13:43.362Z,101449.25
2022-08-03T02:16:11.743Z,101457.75
2022-08-03T02:18:40.435Z,101459.47
2022-08-03T02:21:10.888Z,101462.81
2022-08-03T02:23:38.904Z,101459.38
2022-08-03T02:26:09.337Z,101462.75
2022-08-03T02:28:40.037Z,101461.06
2022-08-03T02:31:13.149Z,101457.53
2022-08-03T02:33:44.009Z,101452.31
2022-08-03T02:36:14.085Z,101447.00
2022-08-03T02:38:44.314Z,101447.06
2022-08-03T02:41:21.105Z,101434.78
2022-08-03T02:44:06.655Z,101434.78
2022-08-03T02:46:38.540Z,101433.13
2022-08-03T02:49:34.939Z,101433.09
2022-08-03T02:51:54.757Z,101437.50
2022-08-03T02:54:23.262Z,101427.13
2022-08-03T02:56:52.010Z,101434.06
2022-08-03T02:59:20.160Z,101434.88
2022-08-03T03:01:47.603Z,101426.25
2022-08-03T03:04:15.398Z,101430.66
2022-08-03T03:06:44.105Z,101417.59
2022-08-03T03:09:13.879Z,101420.19
2022-08-03T03:11:42.277Z,101426.25
2022-08-03T03:14:12.374Z,101423.69
2022-08-03T03:16:40.589Z,101427.19
2022-08-03T03:19:08.607Z,101425.50
2022-08-03T03:21:37.109Z,101435.91
2022-08-03T03:24:05.660Z,101433.31
2022-08-03T03:26:33.259Z,101440.22
2022-08-03T03:29:01.144Z,101424.63
2022-08-03T03:31:27.790Z,101437.78
2022-08-03T03:33:57.579Z,101444.72
2022-08-03T03:36:24.114Z,101430.81
2022-08-03T03:38:50.744Z,101437.78
2022-08-03T03:41:20.871Z,101429.88
2022-08-03T03:43:49.323Z,101436.84
2022-08-03T03:46:18.195Z,101436.00
2022-08-03T03:48:44.982Z,101434.25
2022-08-03T03:51:11.761Z,101438.56
2022-08-03T03:53:38.302Z,101428.22
2022-08-03T03:56:04.958Z,101430.78
2022-08-03T03:58:32.692Z,101430.78
2022-08-03T04:01:00.235Z,101429.97
2022-08-03T04:03:27.061Z,101422.19
2022-08-03T04:06:12.283Z,101433.34
2022-08-03T04:08:58.213Z,101434.25
2022-08-03T04:11:30.321Z,101428.25
2022-08-03T04:14:12.039Z,101441.19
2022-08-03T04:16:43.956Z,101429.09
2022-08-03T04:19:22.607Z,101440.41
2022-08-03T04:21:52.987Z,101432.59
2022-08-03T04:24:27.088Z,101429.03
2022-08-03T04:26:55.448Z,101431.50
2022-08-03T04:29:23.848Z,101431.50
2022-08-03T04:31:52.927Z,101434.94
2022-08-03T04:34:19.609Z,101438.50
2022-08-03T04:36:50.322Z,101445.41
2022-08-03T04:39:23.330Z,101423.75
2022-08-03T04:42:08.242Z,101457.50
2022-08-03T04:44:40.727Z,101443.56
2022-08-03T04:47:08.343Z,101445.16
2022-08-03T04:49:38.647Z,101450.34
2022-08-03T04:52:08.669Z,101445.06
2022-08-03T04:54:50.058Z,101452.72
2022-08-03T04:57:22.114Z,101459.75
2022-08-03T05:00:02.152Z,101452.63
2022-08-03T05:02:31.151Z,101470.84
2022-08-03T05:04:57.865Z,101459.44
2022-08-03T05:07:25.103Z,101451.53
2022-08-03T05:10:01.781Z,101469.66
2022-08-03T05:12:32.803Z,101471.34
2022-08-03T05:15:00.274Z,101473.84
2022-08-03T05:17:27.170Z,101461.59
2022-08-03T05:19:53.774Z,101474.53
2022-08-03T05:22:21.181Z,101469.28
2022-08-03T05:24:48.115Z,101469.28
2022-08-03T05:27:19.270Z,101470.72
2022-08-03T05:29:47.026Z,101471.63
2022-08-03T05:32:13.587Z,101467.72
2022-08-03T05:34:40.175Z,101466.06
2022-08-03T05:37:07.414Z,101470.25
2022-08-03T05:39:34.660Z,101457.53
2022-08-03T05:42:02.078Z,101464.84
2022-08-03T05:44:28.920Z,101468.13
2022-08-03T05:46:57.480Z,101473.06
2022-08-03T05:49:23.992Z,101465.22
2022-08-03T05:52:00.199Z,101466.19
2022-08-03T05:54:56.356Z,101471.47
2022-08-03T05:57:22.292Z,101469.88
2022-08-03T05:59:55.607Z,101463.88
2022-08-03T06:02:28.695Z,101450.28
2022-08-03T06:04:55.374Z,101468.25
2022-08-03T06:07:22.131Z,101462.75
2022-08-03T06:10:33.385Z,101458.72
2022-08-03T06:12:41.092Z,101464.09
2022-08-03T06:15:08.091Z,101461.00
2022-08-03T06:17:47.981Z,101460.50
2022-08-03T06:20:17.917Z,101471.31
2022-08-03T06:22:51.232Z,101468.34
2022-08-03T06:25:27.358Z,101462.84
2022-08-03T06:27:53.854Z,101466.44
2022-08-03T06:30:21.478Z,101470.88
2022-08-03T06:32:51.841Z,101466.34
2022-08-03T06:35:19.054Z,101463.50
2022-08-03T06:37:48.149Z,101469.91
2022-08-03T06:40:21.687Z,101464.44
2022-08-03T06:42:50.862Z,101470.94
2022-08-03T06:45:18.091Z,101476.75
2022-08-03T06:47:44.683Z,101477.66
2022-08-03T06:50:16.108Z,101484.53
2022-08-03T06:52:44.574Z,101479.41
2022-08-03T06:55:11.479Z,101473.97
2022-08-03T06:57:38.145Z,101481.78
2022-08-03T07:00:09.607Z,101482.31
2022-08-03T07:02:39.833Z,101477.28
2022-08-03T07:05:07.932Z,101477.03
2022-08-03T07:07:34.534Z,101484.22
2022-08-03T07:10:02.236Z,101478.84
2022-08-03T07:12:30.321Z,101483.78
2022-08-03T07:15:02.830Z,101493.00
2022-08-03T07:17:31.622Z,101486.72
2022-08-03T07:19:59.111Z,101491.00
2022-08-03T07:22:25.865Z,101490.69
2022-08-03T07:24:52.476Z,101488.63
2022-08-03T07:27:19.057Z,101501.00
2022-08-03T07:29:45.543Z,101498.00
2022-08-03T07:32:12.037Z,101504.03
2022-08-03T07:34:38.545Z,101504.03
2022-08-03T07:37:05.104Z,101507.00
2022-08-03T07:39:31.633Z,101500.69
2022-08-03T07:41:58.145Z,101505.59
2022-08-03T07:44:24.651Z,101509.22
2022-08-03T07:46:51.198Z,101511.66
2022-08-03T07:49:18.872Z,101514.28
2022-08-03T07:51:45.447Z,101515.91
2022-08-03T07:54:11.984Z,101518.56
2022-08-03T07:56:39.197Z,101514.00
2022-08-03T07:59:05.866Z,101521.47
2022-08-03T08:01:35.886Z,101526.69
2022-08-03T08:04:02.534Z,101520.16
2022-08-03T08:06:29.126Z,101537.84
2022-08-03T08:08:59.465Z,101533.66
2022-08-03T08:11:25.967Z,101527.88
2022-08-03T08:13:52.496Z,101525.72
2022-08-03T08:16:18.967Z,101517.53
2022-08-03T08:18:45.491Z,101526.72
2022-08-03T08:21:12.014Z,101522.63
2022-08-03T08:23:43.121Z,101519.50
2022-08-03T08:26:11.503Z,101528.81
2022-08-03T08:28:38.288Z,101528.25
2022-08-03T08:31:05.307Z,101524.03
2022-08-03T08:33:48.310Z,101523.50
2022-08-03T08:36:18.985Z,101528.06
2022-08-03T08:38:45.848Z,101528.28
2022-08-03T08:41:13.993Z,101530.09
2022-08-03T08:43:43.041Z,101531.88
2022-08-03T08:46:23.200Z,101523.03
2022-08-03T08:48:51.724Z,101525.16
2022-08-03T08:51:20.659Z,101527.22
2022-08-03T08:53:51.806Z,101523.63
2022-08-03T08:56:20.465Z,101526.41
2022-08-03T08:58:51.741Z,101521.78
2022-08-03T09:01:20.125Z,101530.66
2022-08-03T09:03:47.332Z,101528.63
2022-08-03T09:06:14.992Z,101524.41
2022-08-03T09:08:41.945Z,101522.84
2022-08-03T09:11:08.501Z,101521.16
2022-08-03T09:13:39.075Z,101525.94
2022-08-03T09:16:17.393Z,101519.03
2022-08-03T09:18:46.196Z,101517.09
2022-08-03T09:21:34.289Z,101527.13
2022-08-03T09:24:04.865Z,101531.41
2022-08-03T09:26:37.931Z,101530.81
2022-08-03T09:29:14.969Z,101526.75
2022-08-03T09:31:45.831Z,101534.81
2022-08-03T09:34:17.880Z,101532.22
2022-08-03T09:36:47.000Z,101525.25
2022-08-03T09:39:40.195Z,101530.25
2022-08-03T09:42:14.844Z,101533.03
2022-08-03T09:44:42.660Z,101536.78
2022-08-03T09:47:13.915Z,101538.41
2022-08-03T09:49:42.549Z,101533.31
2022-08-03T09:52:32.823Z,101517.06
2022-08-03T09:55:23.575Z,101518.94
2022-08-03T09:58:09.190Z,101531.00
2022-08-03T10:00:54.099Z,101521.97
2022-08-03T10:03:20.876Z,101528.19
2022-08-03T10:05:47.435Z,101535.47
2022-08-03T10:08:19.871Z,101528.19
2022-08-03T10:10:49.683Z,101528.88
2022-08-03T10:13:18.470Z,101537.16
2022-08-03T10:16:23.718Z,101533.56
2022-08-03T10:18:32.907Z,101535.81
2022-08-03T10:21:04.538Z,101542.59
2022-08-03T10:23:34.865Z,101539.56
2022-08-03T10:26:04.928Z,101536.06
2022-08-03T10:28:39.199Z,101540.09
2022-08-03T10:31:10.189Z,101537.75
2022-08-03T10:33:50.806Z,101525.69
2022-08-03T10:36:23.975Z,101522.25
2022-08-03T10:38:56.576Z,101521.41
2022-08-03T10:41:26.838Z,101529.63
2022-08-03T10:44:03.045Z,101519.59
2022-08-03T10:46:29.631Z,101515.78
2022-08-03T10:48:56.900Z,101526.78
2022-08-03T10:51:24.201Z,101523.25
2022-08-03T10:53:55.264Z,101517.78
2022-08-03T10:56:53.488Z,101515.28
2022-08-03T10:59:59.348Z,101518.91
2022-08-03T11:03:08.831Z,101515.97
2022-08-03T11:05:55.552Z,101512.28
2022-08-03T11:08:30.797Z,101505.16
2022-08-03T11:11:03.762Z,101508.31
2022-08-03T11:13:33.508Z,101510.03
2022-08-03T11:16:04.898Z,101513.22
2022-08-03T11:18:34.941Z,101511.25
2022-08-03T11:21:02.439Z,101506.13
2022-08-03T11:24:05.164Z,101501.78
2022-08-03T11:26:33.627Z,101510.31
2022-08-03T11:29:29.672Z,101519.25
2022-08-03T11:31:56.502Z,101511.31
2022-08-03T11:34:24.529Z,101515.16
2022-08-03T11:37:26.416Z,101511.44
2022-08-03T11:39:57.209Z,101519.50
2022-08-03T11:42:23.948Z,101507.81
2022-08-03T11:44:51.530Z,101510.47
2022-08-03T11:47:20.192Z,101514.56
2022-08-03T11:49:48.223Z,101508.94
2022-08-03T11:52:16.936Z,101501.47
2022-08-03T11:54:44.028Z,101493.59
2022-08-03T11:57:10.654Z,101499.19
2022-08-03T11:59:38.738Z,101507.16
2022-08-03T12:02:11.078Z,101506.41
2022-08-03T12:04:58.775Z,101516.28
2022-08-03T12:08:03.846Z,101515.69
2022-08-03T12:10:16.070Z,101515.25
2022-08-03T12:12:46.849Z,101513.25
2022-08-03T12:15:13.591Z,101500.69
2022-08-03T12:17:41.369Z,101511.81
2022-08-03T12:20:10.284Z,101508.00
2022-08-03T12:22:40.084Z,101505.47
2022-08-03T12:25:08.177Z,101507.63
2022-08-03T12:27:34.929Z,101500.63
2022-08-03T12:30:02.219Z,101498.06
2022-08-03T12:32:30.195Z,101496.44
2022-08-03T12:35:01.084Z,101501.84
2022-08-03T12:37:28.615Z,101495.56
2022-08-03T12:40:02.982Z,101493.03
2022-08-03T12:42:36.370Z,101497.13
2022-08-03T12:45:23.160Z,101488.56
2022-08-03T12:47:53.281Z,101493.13
2022-08-03T12:50:31.948Z,101493.19
2022-08-03T12:53:00.237Z,101484.16
2022-08-03T12:55:40.058Z,101482.69
2022-08-03T12:58:33.511Z,101483.31
2022-08-03T13:01:00.364Z,101474.06
2022-08-03T13:03:39.458Z,101473.66
2022-08-03T13:06:20.333Z,101479.50
2022-08-03T13:08:48.239Z,101485.56
2022-08-03T13:11:55.426Z,101479.69
2022-08-03T13:14:17.481Z,101480.16
2022-08-03T13:16:47.255Z,101475.03
2022-08-03T13:19:15.604Z,101475.56
2022-08-03T13:22:02.168Z,101472.06
2022-08-03T13:24:30.346Z,101474.44
2022-08-03T13:26:57.062Z,101474.44
2022-08-03T13:29:23.552Z,101469.16
2022-08-03T13:31:50.198Z,101473.59
2022-08-03T13:34:22.957Z,101477.59
2022-08-03T13:37:08.503Z,101469.16
2022-08-03T13:39:58.238Z,101468.28
2022-08-03T13:42:22.810Z,101473.81
2022-08-03T13:44:49.348Z,101469.91
2022-08-03T13:47:16.215Z,101471.53
2022-08-03T13:49:42.903Z,101468.00
2022-08-03T13:52:23.565Z,101465.22
2022-08-03T13:54:50.080Z,101463.06
2022-08-03T13:58:04.379Z,101467.22
2022-08-03T14:00:04.719Z,101464.91
2022-08-03T14:02:31.274Z,101466.75
2022-08-03T14:04:57.841Z,101462.34
2022-08-03T14:07:24.467Z,101470.72
2022-08-03T14:09:50.939Z,101465.91
2022-08-03T14:12:17.496Z,101467.41
2022-08-03T14:14:44.048Z,101477.91
2022-08-03T14:17:10.626Z,101466.44
2022-08-03T14:19:52.538Z,101460.34
2022-08-03T14:22:20.314Z,101460.22
2022-08-03T14:24:46.868Z,101465.13
2022-08-03T14:27:13.447Z,101467.25
2022-08-03T14:29:39.944Z,101467.16
2022-08-03T14:32:09.965Z,101453.66
2022-08-03T14:34:37.336Z,101453.69
2022-08-03T14:37:03.841Z,101450.75
2022-08-03T14:39:58.350Z,101464.59
2022-08-03T14:42:16.930Z,101455.31
2022-08-03T14:44:43.546Z,101467.50
2022-08-03T14:47:10.808Z,101464.31
2022-08-03T14:50:36.290Z,101467.41
2022-08-03T14:52:25.073Z,101448.03
2022-08-03T14:54:51.644Z,101457.78
2022-08-03T14:57:18.284Z,101458.84
2022-08-03T14:59:57.073Z,101455.88
2022-08-03T15:02:25.131Z,101457.78
2022-08-03T15:04:52.682Z,101446.97
2022-08-03T15:07:20.855Z,101447.91
2022-08-03T15:09:47.993Z,101452.47
2022-08-03T15:12:14.532Z,101457.63
2022-08-03T15:14:41.179Z,101449.25
2022-08-03T15:17:08.133Z,101444.22
2022-08-03T15:20:02.236Z,101436.75
2022-08-03T15:22:25.319Z,101440.34
2022-08-03T15:26:02.156Z,101439.56
2022-08-03T15:28:03.341Z,101437.03
2022-08-03T15:30:31.389Z,101441.84
2022-08-03T15:32:57.908Z,101441.31
2022-08-03T15:35:24.552Z,101439.78
2022-08-03T15:37:51.127Z,101441.75
2022-08-03T15:40:17.684Z,101435.22
2022-08-03T15:42:44.165Z,101442.44
2022-08-03T15:45:11.176Z,101441.41
2022-08-03T15:47:39.354Z,101435.44
2022-08-03T15:50:09.595Z,101442.44
2022-08-03T15:52:36.471Z,101444.34
2022-08-03T15:55:03.379Z,101446.06
2022-08-03T15:57:29.917Z,101437.63
2022-08-03T15:59:56.406Z,101439.31
2022-08-03T16:02:22.922Z,101435.91
2022-08-03T16:04:49.525Z,101434.09
2022-08-03T16:07:16.362Z,101431.44
2022-08-03T16:09:44.029Z,101432.84
2022-08-03T16:12:15.849Z,101435.22
2022-08-03T16:14:51.822Z,101426.50
2022-08-03T16:17:19.744Z,101427.44
2022-08-03T16:19:46.491Z,101434.56
2022-08-03T16:22:13.431Z,101431.63
2022-08-03T16:24:41.288Z,101431.34
2022-08-03T16:27:25.039Z,101427.63
2022-08-03T16:29:54.596Z,101428.50
2022-08-03T16:32:21.189Z,101425.84
2022-08-03T16:34:48.226Z,101422.69
2022-08-03T16:37:37.725Z,101429.13
2022-08-03T16:40:02.252Z,101423.16
2022-08-03T16:42:28.889Z,101419.81
2022-08-03T16:44:55.459Z,101425.31
2022-08-03T16:47:22.950Z,101427.13
2022-08-03T16:49:54.780Z,101419.78
2022-08-03T16:52:23.761Z,101419.59
2022-08-03T16:54:53.604Z,101417.34
2022-08-03T16:57:56.572Z,101417.94
2022-08-03T17:00:33.357Z,101421.63
2022-08-03T17:03:00.971Z,101419.25
2022-08-03T17:05:43.735Z,101415.59
2022-08-03T17:08:15.440Z,101419.69
2022-08-03T17:10:45.325Z,101409.06
2022-08-03T17:13:21.475Z,101410.97
2022-08-03T17:15:57.901Z,101414.56
2022-08-03T17:18:32.368Z,101410.97
2022-08-03T17:21:03.936Z,101411.50
2022-08-03T17:23:46.321Z,101420.31
2022-08-03T17:26:21.697Z,101424.09
2022-08-03T17:28:57.418Z,101421.38
2022-08-03T17:31:31.223Z,101415.41
2022-08-03T17:34:01.269Z,101413.34
2022-08-03T17:36:47.677Z,101416.75
2022-08-03T17:39:16.898Z,101413.41
2022-08-03T17:41:49.871Z,101414.00
2022-08-03T17:44:35.087Z,101427.84
2022-08-03T17:47:07.057Z,101425.19
2022-08-03T17:49:40.063Z,101426.28
2022-08-03T17:52:27.351Z,101422.28
2022-08-03T17:55:56.877Z,101421.31
2022-08-03T17:58:03.350Z,101425.28
2022-08-03T18:00:51.516Z,101426.31
2022-08-03T18:03:58.040Z,101427.13
2022-08-03T18:06:28.623Z,101424.88
2022-08-03T18:09:04.841Z,101423.34
2022-08-03T18:11:35.666Z,101425.75
2022-08-03T18:14:31.702Z,101423.38
2022-08-03T18:17:04.811Z,101422.75
2022-08-03T18:20:02.660Z,101423.75
2022-08-03T18:22:25.287Z,101415.84
2022-08-03T18:24:52.990Z,101417.38
2022-08-03T18:27:21.828Z,101421.47
2022-08-03T18:29:49.949Z,101418.47
2022-08-03T18:32:18.236Z,101422.38
2022-08-03T18:34:53.685Z,101415.03
2022-08-03T18:37:25.193Z,101413.56
2022-08-03T18:39:55.811Z,101420.81
2022-08-03T18:42:26.499Z,101417.38
2022-08-03T18:44:56.128Z,101414.22
2022-08-03T18:47:50.456Z,101420.00
2022-08-03T18:50:24.444Z,101414.09
2022-08-03T18:53:02.616Z,101419.00
2022-08-03T18:55:52.243Z,101416.84
2022-08-03T18:59:00.153Z,101411.06
2022-08-03T19:02:00.419Z,101420.13
2022-08-03T19:04:34.080Z,101417.28
2022-08-03T19:07:11.226Z,101415.03
2022-08-03T19:09:48.987Z,101422.28
2022-08-03T19:15:37.011Z,101429.09
2022-08-03T19:18:10.905Z,101425.06
2022-08-03T19:20:37.798Z,101425.44
2022-08-03T19:23:04.504Z,101430.91
2022-08-03T19:25:38.325Z,101423.28
2022-08-03T19:28:07.151Z,101420.13
2022-08-03T19:30:46.443Z,101429.16
2022-08-03T19:33:20.398Z,101435.56
2022-08-03T19:35:55.143Z,101429.72
2022-08-03T19:38:29.313Z,101438.81
2022-08-03T19:41:02.024Z,101438.97
2022-08-03T19:43:52.747Z,101437.53
2022-08-03T19:46:21.997Z,101441.28
2022-08-03T19:48:55.810Z,101437.97
2022-08-03T19:51:27.653Z,101438.34
2022-08-03T19:54:14.863Z,101435.34
2022-08-03T19:56:46.412Z,101432.94
2022-08-03T19:59:15.653Z,101433.97
2022-08-03T20:01:50.624Z,101433.31
2022-08-03T20:04:18.648Z,101436.00
2022-08-03T20:06:47.883Z,101437.09
2022-08-03T20:09:16.750Z,101428.41
2022-08-03T20:11:45.170Z,101430.34
2022-08-03T20:14:13.268Z,101429.66
2022-08-03T20:16:48.677Z,101435.06
2022-08-03T20:19:16.670Z,101426.63
2022-08-03T20:21:49.998Z,101416.25
2022-08-03T20:24:25.365Z,101425.22
2022-08-03T20:26:54.127Z,101422.88
2022-08-03T20:30:05.199Z,101412.63
2022-08-03T20:32:16.971Z,101414.72
2022-08-03T20:34:44.409Z,101407.91
2022-08-03T20:37:16.204Z,101417.50
2022-08-03T20:39:48.182Z,101413.38
2022-08-03T20:42:21.064Z,101414.25
2022-08-03T20:45:04.700Z,101410.94
2022-08-03T20:47:36.735Z,101417.16
2022-08-03T20:50:16.963Z,101411.22
2022-08-03T20:52:49.310Z,101411.38
2022-08-03T20:55:18.253Z,101413.25
2022-08-03T20:57:49.117Z,101405.50
2022-08-03T21:00:19.514Z,101402.91
2022-08-03T21:02:49.093Z,101396.28
2022-08-03T21:05:15.631Z,101403.31
2022-08-03T21:08:05.288Z,101401.72
2022-08-03T21:10:37.815Z,101402.81
2022-08-03T21:13:01.613Z,101419.19
2022-08-03T21:13:30.744Z,101409.91
2022-08-03T21:16:06.801Z,101408.44
2022-08-03T21:18:49.012Z,101398.97
2022-08-03T21:21:17.585Z,101397.25
2022-08-03T21:23:49.549Z,101391.22
2022-08-03T21:26:18.776Z,101396.47
2022-08-03T21:28:47.147Z,101390.47
2022-08-03T21:31:23.678Z,101393.19
2022-08-03T21:33:57.465Z,101389.91
2022-08-03T21:36:26.830Z,101387.41
2022-08-03T21:38:55.978Z,101381.41
2022-08-03T21:41:28.195Z,101395.34
2022-08-03T21:43:54.859Z,101380.66
2022-08-03T21:46:22.459Z,101375.44
2022-08-03T21:48:55.035Z,101380.72
2022-08-03T21:51:24.990Z,101379.09
2022-08-03T21:54:02.314Z,101366.91
2022-08-03T21:56:51.294Z,101379.31
2022-08-03T21:59:19.982Z,101374.19
2022-08-03T22:01:55.442Z,101375.13
2022-08-03T22:04:55.308Z,101381.31
2022-08-03T22:07:12.319Z,101368.41
2022-08-03T22:09:38.953Z,101361.41
2022-08-03T22:12:06.303Z,101357.97
2022-08-03T22:14:33.428Z,101354.50
2022-08-03T22:17:00.734Z,101358.06
2022-08-03T22:19:30.151Z,101356.44
2022-08-03T22:21:57.392Z,101353.94
2022-08-03T22:24:28.651Z,101354.09
2022-08-03T22:27:14.714Z,101354.94
2022-08-03T22:29:43.170Z,101354.31
2022-08-03T22:32:09.872Z,101357.06
2022-08-03T22:34:37.582Z,101354.47
2022-08-03T22:37:05.046Z,101351.97
2022-08-03T22:39:32.296Z,101353.66
2022-08-03T22:41:59.793Z,101354.63
2022-08-03T22:44:27.692Z,101363.41
2022-08-03T22:46:55.577Z,101359.13
2022-08-03T22:49:22.506Z,101357.50
2022-08-03T22:51:51.909Z,101361.94
2022-08-03T22:54:18.770Z,101361.13
2022-08-03T22:56:46.991Z,101361.28
2022-08-03T22:59:40.283Z,101362.97
2022-08-03T23:02:20.037Z,101356.03
2022-08-03T23:04:56.611Z,101359.59
2022-08-03T23:07:50.842Z,101360.56
2022-08-03T23:10:17.443Z,101360.69
2022-08-03T23:12:47.406Z,101366.75
2022-08-03T23:15:14.259Z,101371.25
2022-08-03T23:17:57.545Z,101360.00
2022-08-03T23:20:26.830Z,101370.47
2022-08-03T23:22:54.795Z,101362.69
2022-08-03T23:25:22.043Z,101363.63
2022-08-03T23:28:05.488Z,101362.81
2022-08-03T23:30:34.723Z,101363.75
2022-08-03T23:33:02.897Z,101362.09
2022-08-03T23:36:28.467Z,101357.72
2022-08-03T23:38:36.801Z,101351.75
2022-08-03T23:41:05.065Z,101360.47
2022-08-03T23:43:50.909Z,101361.38
2022-08-03T23:46:19.773Z,101364.03
2022-08-03T23:48:46.397Z,101359.72
2022-08-03T23:51:38.542Z,101349.25
2022-08-03T23:54:29.534Z,101359.75
2022-08-03T23:57:43.507Z,101365.06
